Terminal Aerodrome Forecast
Issued by NWS

Home | Current Version | Previous Version | Text Only | Print | Product List | Glossary On
Versions: 1 2 3 4 5 6 7 8 9 10 11 12 13 14 15 16 17 18 19 20 21 22 23 24 25 26 27
000
FTUS43 KDLH 271346 AAA
TAFHYR
TAF AMD
KHYR 271346Z 2714/2812 29008KT P6SM -DZ OVC020
     FM271700 30010KT 6SM -RA BR SCT010 OVC015
     FM272300 32009KT 4SM -DZ BR SCT007 OVC010
     FM280200 34007KT 3SM BR SCT005 OVC007=

USA.gov is the U.S. government's official web portal to all federal, state and local government web resources and services.